Time;durP1;ratioP1;P1;durP2;ratioP2;P2;SDS_P1;SDS_P2;PMS_P1;PMS_P2;Temp;Humidity;BMP_temperature;BMP_pressure;BME280_temperature;BME280_humidity;BME280_pressure;Samples;Min_cycle;Max_cycle;Signal;HPM_P1;HPM_P2
2022/01/06 00:00:35;;;;;;;13.23;1.73;;;4.80;99.90;;;;;;5052531;28;20059;-78
2022/01/06 00:03:01;;;;;;;14.55;1.70;;;4.80;99.90;;;;;;5052205;28;20053;-77
2022/01/06 00:05:27;;;;;;;12.15;1.92;;;4.70;99.90;;;;;;5052065;28;20086;-77
2022/01/06 00:07:53;;;;;;;16.25;2.13;;;4.70;99.90;;;;;;5051848;28;20044;-77
2022/01/06 00:10:19;;;;;;;15.32;1.58;;;4.70;99.90;;;;;;5051184;28;20144;-78
2022/01/06 00:25:37;;;;;;;15.35;1.83;;;4.60;99.90;;;;;;5071884;28;20198;-77
2022/01/06 00:28:03;;;;;;;6.22;1.15;;;4.60;99.90;;;;;;5071903;28;20123;-78
2022/01/06 00:30:29;;;;;;;11.25;1.38;;;4.50;99.90;;;;;;5089750;28;20463;-77
2022/01/06 00:32:55;;;;;;;11.70;2.08;;;4.50;99.90;;;;;;5071967;28;20051;-77
2022/01/06 00:35:21;;;;;;;12.88;1.70;;;4.40;99.90;;;;;;5055210;28;20047;-77
2022/01/06 00:37:46;;;;;;;9.50;1.50;;;4.40;99.90;;;;;;5071706;28;20043;-77
2022/01/06 00:40:12;;;;;;;18.00;1.92;;;4.40;99.90;;;;;;5072051;28;20048;-78
2022/01/06 00:42:39;;;;;;;13.95;1.63;;;4.30;99.90;;;;;;5071563;28;20051;-78
2022/01/06 00:45:05;;;;;;;13.35;1.75;;;4.30;99.90;;;;;;5090027;28;20113;-77
2022/01/06 00:47:31;;;;;;;10.35;1.58;;;4.30;99.90;;;;;;5071914;28;20491;-78
2022/01/06 00:49:56;;;;;;;16.90;2.55;;;4.30;99.90;;;;;;5071333;28;20040;-77
2022/01/06 00:52:22;;;;;;;14.73;1.63;;;4.30;99.90;;;;;;5071222;28;20040;-78
2022/01/06 00:54:47;;;;;;;14.07;1.95;;;4.20;99.90;;;;;;5089913;28;20048;-77
2022/01/06 00:57:13;;;;;;;10.32;1.40;;;4.20;99.90;;;;;;5071733;28;20491;-77
2022/01/06 00:59:39;;;;;;;13.90;1.65;;;4.10;99.90;;;;;;5071718;28;20052;-78
2022/01/06 01:02:04;;;;;;;8.95;1.83;;;4.10;99.90;;;;;;5072006;28;20050;-78
2022/01/06 01:04:30;;;;;;;16.70;1.83;;;4.10;99.90;;;;;;5071178;28;20051;-77
2022/01/06 01:06:56;;;;;;;15.65;1.58;;;4.10;99.90;;;;;;5089775;28;20769;-77
2022/01/06 01:09:21;;;;;;;17.05;2.88;;;4.10;99.90;;;;;;5071225;28;20120;-77
2022/01/06 01:11:47;;;;;;;17.05;1.25;;;4.10;99.90;;;;;;5071665;28;20059;-77
2022/01/06 01:14:26;;;;;;;18.63;1.30;;;4.10;99.90;;;;;;5071333;28;20044;-77
2022/01/06 01:16:56;;;;;;;11.45;1.60;;;4.10;99.90;;;;;;5071707;28;20075;-77
2022/01/06 01:19:22;;;;;;;14.60;1.50;;;4.10;99.90;;;;;;5051171;28;20051;-77
2022/01/06 01:21:48;;;;;;;8.80;1.38;;;4.10;99.90;;;;;;5034781;28;20086;-77
2022/01/06 01:24:13;;;;;;;13.50;1.85;;;4.00;99.90;;;;;;5051050;28;20143;-77
2022/01/06 01:26:39;;;;;;;13.38;1.52;;;4.00;99.90;;;;;;5050932;28;20045;-77
2022/01/06 01:29:09;;;;;;;9.57;1.55;;;4.10;99.90;;;;;;5051437;28;20041;-77
2022/01/06 01:31:42;;;;;;;8.18;1.67;;;4.00;99.90;;;;;;5051224;28;20586;-77
2022/01/06 01:34:09;;;;;;;16.48;2.20;;;4.10;99.90;;;;;;5051187;28;20098;-77
2022/01/06 01:36:36;;;;;;;16.20;1.60;;;4.10;99.90;;;;;;5050834;28;20568;-77
2022/01/06 01:39:02;;;;;;;12.30;1.42;;;4.00;99.90;;;;;;5034735;28;20044;-78
2022/01/06 01:41:28;;;;;;;11.63;1.50;;;4.00;99.90;;;;;;5051016;28;20095;-78
2022/01/06 01:43:55;;;;;;;18.20;2.47;;;4.00;99.90;;;;;;5050877;28;20083;-78
2022/01/06 01:46:28;;;;;;;8.63;1.23;;;3.90;99.90;;;;;;5034833;28;20470;-78
2022/01/06 01:49:17;;;;;;;13.05;1.48;;;3.90;99.90;;;;;;5050337;28;20040;-77
2022/01/06 01:51:44;;;;;;;12.93;1.55;;;3.80;99.90;;;;;;5068968;28;20552;-78
2022/01/06 01:54:10;;;;;;;14.60;1.42;;;3.70;99.90;;;;;;5034257;28;20028;-77
2022/01/06 01:56:36;;;;;;;9.40;2.25;;;3.60;99.90;;;;;;5068979;28;20044;-78
2022/01/06 01:59:02;;;;;;;8.60;0.88;;;3.50;99.90;;;;;;5050742;28;20139;-78
2022/01/06 02:01:28;;;;;;;11.25;1.23;;;3.40;99.90;;;;;;5054562;28;20055;-78
2022/01/06 02:03:53;;;;;;;10.57;1.35;;;3.30;99.90;;;;;;5070656;28;20048;-78
2022/01/06 02:06:20;;;;;;;9.18;1.27;;;3.30;99.90;;;;;;5057172;28;20047;-78
2022/01/06 02:08:46;;;;;;;14.90;1.75;;;3.30;99.90;;;;;;5074561;28;20490;-78
2022/01/06 02:11:12;;;;;;;16.48;2.05;;;3.20;99.90;;;;;;5067205;28;20470;-77
2022/01/06 02:13:48;;;;;;;12.65;1.50;;;3.20;99.90;;;;;;5054379;28;20051;-77
2022/01/06 02:16:18;;;;;;;12.63;1.55;;;3.20;99.90;;;;;;5054337;28;20063;-78
2022/01/06 02:18:43;;;;;;;14.32;2.30;;;3.20;99.90;;;;;;5054465;28;20052;-78
2022/01/06 02:21:09;;;;;;;18.13;2.40;;;3.20;99.90;;;;;;5091754;28;20043;-78
2022/01/06 02:23:34;;;;;;;10.32;1.50;;;3.20;99.90;;;;;;5092464;28;20722;-78
2022/01/06 02:26:00;;;;;;;11.43;1.58;;;3.30;99.90;;;;;;5074659;28;20071;-77
2022/01/06 02:28:26;;;;;;;11.60;1.35;;;3.30;99.90;;;;;;5091926;28;20149;-78
2022/01/06 02:30:54;;;;;;;10.07;1.30;;;3.30;99.90;;;;;;5074422;28;20048;-78
2022/01/06 02:33:21;;;;;;;11.70;1.50;;;3.40;99.90;;;;;;5074323;28;20048;-78
2022/01/06 02:35:48;;;;;;;8.23;1.13;;;3.40;99.90;;;;;;5073806;28;20101;-78
2022/01/06 02:38:14;;;;;;;8.45;1.00;;;3.50;99.90;;;;;;5072604;28;20094;-78
2022/01/06 02:40:40;;;;;;;14.15;1.30;;;3.50;99.90;;;;;;5054357;28;20067;-78
2022/01/06 02:43:07;;;;;;;10.88;1.40;;;3.60;99.90;;;;;;5054033;28;20048;-78
2022/01/06 02:45:33;;;;;;;15.02;1.35;;;3.50;99.90;;;;;;5037450;28;20040;-78
2022/01/06 02:48:08;;;;;;;8.73;1.13;;;3.50;99.90;;;;;;5054083;28;20059;-77
2022/01/06 02:50:37;;;;;;;14.98;2.25;;;3.50;99.90;;;;;;5071925;28;20051;-78
2022/01/06 02:53:03;;;;;;;13.18;1.33;;;3.40;99.90;;;;;;5071872;28;20045;-78
2022/01/06 02:55:28;;;;;;;11.68;0.95;;;3.40;99.90;;;;;;5036745;28;20045;-78
2022/01/06 02:57:54;;;;;;;11.55;2.00;;;3.30;99.90;;;;;;5071573;28;20135;-77
2022/01/06 03:00:20;;;;;;;9.02;0.98;;;3.20;99.90;;;;;;5053837;28;20037;-78
2022/01/06 03:02:46;;;;;;;9.45;1.13;;;3.20;99.90;;;;;;5053827;28;20047;-77
2022/01/06 03:05:13;;;;;;;15.15;1.75;;;3.10;99.90;;;;;;5053542;28;20053;-78
2022/01/06 03:07:40;;;;;;;12.63;1.60;;;3.10;99.90;;;;;;5053461;28;20055;-78
2022/01/06 03:10:09;;;;;;;11.63;1.30;;;3.00;99.90;;;;;;5037446;28;20503;-78
2022/01/06 03:12:43;;;;;;;11.80;1.35;;;3.00;99.90;;;;;;5073326;28;20084;-78
2022/01/06 03:15:15;;;;;;;16.00;2.42;;;2.90;99.90;;;;;;5089772;28;20930;-77
2022/01/06 03:17:43;;;;;;;10.30;1.40;;;2.90;99.90;;;;;;5073127;28;20059;-78
2022/01/06 03:20:12;;;;;;;9.48;1.38;;;2.80;99.90;;;;;;5091786;28;20079;-77
2022/01/06 03:22:38;;;;;;;15.23;1.67;;;2.80;99.90;;;;;;5073265;28;20036;-77
2022/01/06 03:25:05;;;;;;;11.02;1.48;;;2.70;99.90;;;;;;5073159;28;20050;-78
2022/01/06 03:27:31;;;;;;;13.38;2.92;;;2.70;99.90;;;;;;5073549;28;20075;-78
2022/01/06 03:29:57;;;;;;;9.93;1.70;;;2.70;99.90;;;;;;5073541;28;20050;-78
2022/01/06 03:32:22;;;;;;;10.70;1.30;;;2.60;99.90;;;;;;5072823;28;20032;-77
2022/01/06 03:34:48;;;;;;;;;;;2.60;99.90;;;;;;5073255;28;20472;-77
2022/01/06 03:37:14;;;;;;;;;;;2.60;99.90;;;;;;5091626;28;20014;-77
2022/01/06 03:39:40;;;;;;;;;;;2.50;99.90;;;;;;5091414;28;19965;-77
2022/01/06 03:42:06;;;;;;;;;;;2.60;99.90;;;;;;5073481;28;19965;-78
2022/01/06 03:44:32;;;;;;;15.30;2.35;;;2.50;99.90;;;;;;5072852;28;20340;-78
2022/01/06 03:46:57;;;;;;;12.70;2.35;;;2.50;99.90;;;;;;5056180;28;20132;-78
2022/01/06 03:49:23;;;;;;;18.52;4.55;;;2.50;99.90;;;;;;5070972;28;20489;-77
2022/01/06 03:51:49;;;;;;;19.13;4.75;;;2.50;99.90;;;;;;5071677;28;20449;-78
2022/01/06 03:54:15;;;;;;;19.85;4.95;;;2.40;99.90;;;;;;5089411;28;20398;-78
2022/01/06 03:56:41;;;;;;;18.85;5.13;;;2.40;99.90;;;;;;5071861;28;20818;-77
2022/01/06 03:59:07;;;;;;;15.32;3.50;;;2.40;99.90;;;;;;5072721;28;20048;-78
2022/01/06 04:01:33;;;;;;;10.90;2.80;;;2.40;99.90;;;;;;5072502;28;20048;-78
2022/01/06 04:03:59;;;;;;;15.45;2.80;;;2.30;99.90;;;;;;5090673;28;20525;-78
2022/01/06 04:06:25;;;;;;;14.10;2.88;;;2.30;99.90;;;;;;5072717;28;20436;-78
2022/01/06 04:08:51;;;;;;;17.45;3.20;;;2.30;99.90;;;;;;5072177;28;20036;-78
2022/01/06 04:11:17;;;;;;;14.13;2.50;;;2.20;99.90;;;;;;5061358;28;20117;-78
2022/01/06 04:13:42;;;;;;;13.23;2.80;;;2.20;99.90;;;;;;5051887;28;20040;-78
2022/01/06 04:16:10;;;;;;;14.18;2.60;;;2.20;99.90;;;;;;5070360;28;20052;-77
2022/01/06 04:18:36;;;;;;;;;;;2.10;99.90;;;;;;5052673;28;20064;-78
2022/01/06 04:21:03;;;;;;;18.33;2.67;;;2.10;99.90;;;;;;5052303;28;19921;-77
2022/01/06 04:23:28;;;;;;;15.65;3.05;;;2.00;99.90;;;;;;5051089;28;20647;-78
2022/01/06 04:25:54;;;;;;;16.08;2.63;;;2.00;99.90;;;;;;5050723;28;20068;-78
2022/01/06 04:28:19;;;;;;;15.50;2.65;;;2.00;99.90;;;;;;5050989;28;20056;-78
2022/01/06 04:30:45;;;;;;;12.38;2.70;;;2.00;99.90;;;;;;5051144;28;20048;-78
2022/01/06 04:33:11;;;;;;;14.95;2.83;;;2.00;99.90;;;;;;5068986;28;20048;-78
2022/01/06 04:35:36;;;;;;;16.65;3.15;;;2.00;99.90;;;;;;5050879;28;20052;-78
2022/01/06 04:38:02;;;;;;;9.93;1.98;;;1.90;99.90;;;;;;5050724;28;20797;-77
2022/01/06 04:40:27;;;;;;;12.77;2.33;;;1.80;99.90;;;;;;5050454;28;20048;-78
2022/01/06 04:42:53;;;;;;;10.45;1.60;;;1.90;99.90;;;;;;5034516;28;20056;-77
2022/01/06 04:45:19;;;;;;;11.93;1.95;;;1.90;99.90;;;;;;5068529;28;20499;-78
2022/01/06 04:47:44;;;;;;;7.53;1.63;;;1.80;99.90;;;;;;5051093;28;20044;-78
2022/01/06 04:50:10;;;;;;;11.07;1.63;;;1.80;99.90;;;;;;5068877;28;20418;-77
2022/01/06 04:52:36;;;;;;;14.20;1.45;;;1.80;99.90;;;;;;5068614;28;20041;-78
2022/01/06 04:55:02;;;;;;;10.68;1.40;;;1.80;99.90;;;;;;5068644;28;20775;-77
2022/01/06 04:57:27;;;;;;;11.30;1.42;;;1.80;99.90;;;;;;5068480;28;20080;-77
2022/01/06 04:59:53;;;;;;;10.15;2.03;;;1.70;99.90;;;;;;5068701;28;20083;-77
2022/01/06 05:02:19;;;;;;;7.60;1.13;;;1.70;99.90;;;;;;5050400;28;20032;-77
2022/01/06 05:04:44;;;;;;;14.32;1.80;;;1.70;99.90;;;;;;5050570;28;20473;-78
2022/01/06 05:07:10;;;;;;;10.77;1.95;;;1.70;99.90;;;;;;5050344;28;20078;-77
2022/01/06 05:09:36;;;;;;;10.98;1.70;;;1.70;99.90;;;;;;5050450;28;20052;-77
2022/01/06 05:12:01;;;;;;;7.07;1.23;;;1.70;99.90;;;;;;5067375;28;20132;-77
2022/01/06 05:14:27;;;;;;;12.32;1.60;;;1.70;99.90;;;;;;5070693;28;20561;-77
2022/01/06 05:16:56;;;;;;;16.20;2.70;;;1.70;99.90;;;;;;5070887;28;20135;-77
2022/01/06 05:19:23;;;;;;;13.27;2.05;;;1.70;99.90;;;;;;5069901;28;20055;-77
2022/01/06 05:21:48;;;;;;;15.27;1.70;;;1.70;99.90;;;;;;5070266;28;20093;-77
2022/01/06 05:24:16;;;;;;;11.63;2.33;;;1.60;99.90;;;;;;5070463;28;20044;-77
2022/01/06 05:26:42;;;;;;;12.80;1.48;;;1.70;99.90;;;;;;5088923;28;20093;-78
2022/01/06 05:29:09;;;;;;;14.80;1.33;;;1.70;99.90;;;;;;5088385;28;20052;-77
2022/01/06 05:31:35;;;;;;;12.55;1.70;;;1.60;99.90;;;;;;5070747;28;20093;-77
2022/01/06 05:34:01;;;;;;;13.77;2.25;;;1.60;99.90;;;;;;5070506;28;20036;-77
2022/01/06 05:36:27;;;;;;;12.27;2.35;;;1.60;99.90;;;;;;5069832;28;20089;-77
2022/01/06 05:38:52;;;;;;;19.02;2.53;;;1.60;99.90;;;;;;5073133;28;20117;-78
2022/01/06 05:41:18;;;;;;;18.58;3.05;;;1.60;99.90;;;;;;5074289;28;20040;-77
2022/01/06 05:43:44;;;;;;;22.20;2.47;;;1.50;99.90;;;;;;5074335;28;20121;-77
2022/01/06 05:46:09;;;;;;;23.02;2.40;;;1.50;99.90;;;;;;5074444;28;20346;-77
2022/01/06 05:48:35;;;;;;;13.48;2.38;;;1.60;99.90;;;;;;5074025;28;20101;-77
2022/01/06 05:51:00;;;;;;;16.10;1.65;;;1.50;99.90;;;;;;5073834;28;20106;-77
2022/01/06 05:53:26;;;;;;;18.90;2.28;;;1.50;99.90;;;;;;5057403;28;20051;-78
2022/01/06 05:55:52;;;;;;;16.48;2.33;;;1.50;99.90;;;;;;5073911;28;20048;-77
2022/01/06 05:58:17;;;;;;;15.15;1.90;;;1.50;99.90;;;;;;5056945;28;20506;-78
2022/01/06 06:00:43;;;;;;;12.52;1.98;;;1.40;99.90;;;;;;5074060;28;20044;-78
2022/01/06 06:03:09;;;;;;;13.43;1.92;;;1.40;99.90;;;;;;5073701;28;20131;-77
2022/01/06 06:05:35;;;;;;;17.10;2.35;;;1.40;99.90;;;;;;5073435;28;20040;-78
2022/01/06 06:08:00;;;;;;;21.10;1.60;;;1.30;99.90;;;;;;5073939;28;20051;-78
2022/01/06 06:10:26;;;;;;;13.43;2.17;;;1.30;99.90;;;;;;5088068;28;20381;-78
2022/01/06 06:12:53;;;;;;;15.05;2.28;;;1.20;99.90;;;;;;5071518;28;20048;-78
2022/01/06 06:15:22;;;;;;;13.82;2.22;;;1.20;99.90;;;;;;5053539;28;20495;-77
2022/01/06 06:17:47;;;;;;;10.15;1.92;;;1.10;99.90;;;;;;5053341;28;20123;-78
2022/01/06 06:20:13;;;;;;;17.90;1.90;;;1.10;99.90;;;;;;5071378;28;20140;-78
2022/01/06 06:22:39;;;;;;;19.42;3.65;;;1.10;99.90;;;;;;5053356;28;20051;-78
2022/01/06 06:25:06;;;;;;;18.95;2.35;;;1.10;99.90;;;;;;5053935;28;20109;-78
2022/01/06 06:27:31;;;;;;;15.45;2.65;;;1.10;99.90;;;;;;5053088;28;20514;-78
2022/01/06 06:29:57;;;;;;;16.20;2.38;;;1.10;99.90;;;;;;5053348;28;20048;-78
2022/01/06 06:32:23;;;;;;;20.15;2.60;;;1.00;99.90;;;;;;5053803;28;20388;-78
2022/01/06 06:34:48;;;;;;;23.73;3.15;;;1.00;99.90;;;;;;5052774;28;20039;-77
2022/01/06 06:37:14;;;;;;;18.92;2.05;;;1.00;99.90;;;;;;5053312;28;20125;-77
2022/01/06 06:39:39;;;;;;;19.35;3.42;;;1.00;99.90;;;;;;5053443;28;20760;-78
2022/01/06 06:42:05;;;;;;;11.80;1.65;;;1.00;99.90;;;;;;5052734;28;20086;-77
2022/01/06 06:44:31;;;;;;;20.50;2.28;;;1.00;99.90;;;;;;5052854;28;20044;-77
2022/01/06 06:46:56;;;;;;;15.95;2.22;;;1.00;99.90;;;;;;5053251;28;20047;-78
2022/01/06 06:49:22;;;;;;;17.65;2.65;;;0.90;99.90;;;;;;5052213;28;20056;-78
2022/01/06 06:51:48;;;;;;;18.58;2.70;;;0.90;99.90;;;;;;5053145;28;20127;-78
2022/01/06 06:54:14;;;;;;;13.35;1.80;;;0.90;99.90;;;;;;5053111;28;20123;-78
2022/01/06 06:56:43;;;;;;;20.52;2.47;;;0.90;99.90;;;;;;5052758;28;20410;-78
2022/01/06 06:59:09;;;;;;;17.85;2.90;;;0.90;99.90;;;;;;5052764;28;20056;-78
2022/01/06 07:01:35;;;;;;;19.55;2.20;;;0.90;99.90;;;;;;5054494;28;20059;-77
2022/01/06 07:04:00;;;;;;;21.90;2.72;;;0.90;99.90;;;;;;5060452;28;20044;-78
2022/01/06 07:06:26;;;;;;;19.67;2.90;;;0.90;99.90;;;;;;5073233;28;20501;-76
2022/01/06 07:08:52;;;;;;;20.60;2.50;;;0.80;99.90;;;;;;5088732;28;20044;-75
2022/01/06 07:11:17;;;;;;;17.98;3.10;;;0.80;99.90;;;;;;5080925;28;20076;-75
2022/01/06 07:13:43;;;;;;;19.98;2.95;;;0.80;99.90;;;;;;5061548;28;20104;-76
2022/01/06 07:16:08;;;;;;;16.42;2.70;;;0.80;99.90;;;;;;5072581;28;20040;-76
2022/01/06 07:18:34;;;;;;;20.40;3.05;;;0.70;99.90;;;;;;5054333;28;20352;-76
2022/01/06 07:21:00;;;;;;;16.73;2.75;;;0.70;99.90;;;;;;5071383;28;20044;-76
2022/01/06 07:23:26;;;;;;;20.98;2.60;;;0.70;99.90;;;;;;5067162;28;20048;-76
2022/01/06 07:25:51;;;;;;;28.95;3.65;;;0.70;99.90;;;;;;5052842;28;20101;-76
2022/01/06 07:28:17;;;;;;;15.30;2.30;;;0.70;99.90;;;;;;5069886;28;20049;-76
2022/01/06 07:30:43;;;;;;;19.17;2.78;;;0.70;99.90;;;;;;5090565;28;20056;-76
2022/01/06 07:33:08;;;;;;;20.35;2.53;;;0.70;99.90;;;;;;5054473;28;20139;-76
2022/01/06 07:35:34;;;;;;;16.85;2.42;;;0.70;99.90;;;;;;5055408;28;20055;-77
2022/01/06 07:38:00;;;;;;;19.90;2.90;;;0.70;99.90;;;;;;5072024;28;20040;-77
2022/01/06 07:40:25;;;;;;;25.13;2.75;;;0.70;99.90;;;;;;5070819;28;20055;-76
2022/01/06 07:42:51;;;;;;;16.23;2.65;;;0.70;99.90;;;;;;5052562;28;20048;-76
2022/01/06 07:45:18;;;;;;;23.73;3.90;;;0.70;99.90;;;;;;5054383;28;20047;-77
2022/01/06 07:47:58;;;;;;;19.20;3.05;;;0.70;99.90;;;;;;5051825;28;20045;-77
2022/01/06 07:50:27;;;;;;;22.02;3.63;;;0.70;99.90;;;;;;5052392;28;20407;-76
2022/01/06 07:52:53;;;;;;;18.02;2.72;;;0.70;99.90;;;;;;5070259;28;20419;-77
2022/01/06 07:55:19;;;;;;;16.42;2.75;;;0.70;99.90;;;;;;5067952;28;20047;-77
2022/01/06 07:57:45;;;;;;;18.90;2.75;;;0.70;99.90;;;;;;5072287;28;20052;-77
2022/01/06 08:00:11;;;;;;;18.23;2.85;;;0.70;99.90;;;;;;5054565;28;20517;-76
2022/01/06 08:02:37;;;;;;;20.50;4.03;;;0.70;99.90;;;;;;5069764;28;20051;-77
2022/01/06 08:05:03;;;;;;;16.27;2.70;;;0.70;99.90;;;;;;5077535;28;20051;-77
2022/01/06 08:07:29;;;;;;;20.50;3.38;;;0.70;99.90;;;;;;5071723;28;20039;-77
2022/01/06 08:09:54;;;;;;;22.25;3.83;;;0.70;99.90;;;;;;5057560;28;20053;-77
2022/01/06 08:12:20;;;;;;;14.80;3.05;;;0.70;99.90;;;;;;5048274;28;20138;-77
2022/01/06 08:14:46;;;;;;;19.48;3.60;;;0.70;99.90;;;;;;5049909;28;20083;-77
2022/01/06 08:17:11;;;;;;;22.88;3.55;;;0.70;99.90;;;;;;5047939;28;20460;-76
2022/01/06 08:19:37;;;;;;;21.73;3.05;;;0.70;99.90;;;;;;5055574;28;20059;-77
2022/01/06 08:22:03;;;;;;;26.63;3.28;;;0.80;99.90;;;;;;5066301;28;20044;-77
2022/01/06 08:24:28;;;;;;;22.20;3.75;;;0.80;99.90;;;;;;5068125;28;20105;-77
2022/01/06 08:26:55;;;;;;;24.15;3.42;;;0.80;99.90;;;;;;5065025;28;20043;-77
2022/01/06 08:29:21;;;;;;;15.32;3.00;;;0.80;99.90;;;;;;5068623;28;20052;-77
2022/01/06 08:31:46;;;;;;;17.60;2.97;;;0.90;99.90;;;;;;5067029;28;20047;-77
2022/01/06 08:34:12;;;;;;;23.35;3.75;;;0.90;99.90;;;;;;5068139;28;20044;-76
2022/01/06 08:36:38;;;;;;;26.10;3.40;;;1.00;99.90;;;;;;5061263;28;20135;-77
2022/01/06 08:39:03;;;;;;;20.50;3.80;;;0.90;99.90;;;;;;5050615;28;20041;-76
2022/01/06 08:41:29;;;;;;;22.63;3.33;;;1.00;99.90;;;;;;5060242;28;20040;-77
2022/01/06 08:43:54;;;;;;;25.60;4.25;;;1.00;99.90;;;;;;5048328;28;20056;-77
2022/01/06 08:46:20;;;;;;;18.67;4.18;;;1.00;99.90;;;;;;5048276;28;20048;-76
2022/01/06 08:48:45;;;;;;;23.17;4.40;;;1.00;99.90;;;;;;5048570;28;20045;-77
2022/01/06 08:51:11;;;;;;;22.90;5.50;;;1.10;99.90;;;;;;5066159;28;20178;-77
2022/01/06 08:53:37;;;;;;;23.50;5.63;;;1.10;99.90;;;;;;5050110;28;20757;-77
2022/01/06 08:56:03;;;;;;;20.42;5.30;;;1.10;99.90;;;;;;5048394;28;20135;-77
2022/01/06 08:58:29;;;;;;;16.20;3.42;;;1.10;99.90;;;;;;5048375;28;20132;-77
2022/01/06 09:00:54;;;;;;;22.10;2.97;;;1.20;99.90;;;;;;5048354;28;20041;-77
2022/01/06 09:03:20;;;;;;;19.23;3.58;;;1.20;99.90;;;;;;5064047;28;20056;-76
2022/01/06 09:05:46;;;;;;;20.15;3.25;;;1.30;99.90;;;;;;5068196;28;20052;-76
2022/01/06 09:08:11;;;;;;;22.90;3.85;;;1.30;99.90;;;;;;5060678;28;20491;-77
2022/01/06 09:10:37;;;;;;;19.27;4.00;;;1.30;99.90;;;;;;5057625;28;20096;-77
2022/01/06 09:13:04;;;;;;;27.83;4.20;;;1.40;99.90;;;;;;5062099;28;20052;-77
2022/01/06 09:15:30;;;;;;;25.85;4.20;;;1.40;99.90;;;;;;5050920;28;20045;-77
2022/01/06 09:17:57;;;;;;;19.05;3.67;;;1.40;99.90;;;;;;5043333;28;20052;-77
2022/01/06 09:20:23;;;;;;;19.95;3.38;;;1.50;99.90;;;;;;5069044;28;20040;-77
2022/01/06 09:22:49;;;;;;;;;;;1.50;99.90;;;;;;5068227;28;20045;-77
2022/01/06 09:25:15;;;;;;;19.13;3.42;;;1.60;99.90;;;;;;5037878;28;19921;-76
2022/01/06 09:27:42;;;;;;;22.45;4.35;;;1.60;99.90;;;;;;5040333;28;20441;-76
2022/01/06 09:30:09;;;;;;;25.55;3.53;;;1.60;99.90;;;;;;5068317;28;20041;-76
2022/01/06 09:32:35;;;;;;;21.63;3.60;;;1.70;99.90;;;;;;5066550;28;20218;-77
2022/01/06 09:35:01;;;;;;;17.35;3.10;;;1.70;99.90;;;;;;5067175;28;20537;-76
2022/01/06 09:37:26;;;;;;;17.45;3.28;;;1.70;99.90;;;;;;5066869;28;20082;-76
2022/01/06 09:39:53;;;;;;;20.50;3.25;;;1.80;99.90;;;;;;5069280;28;20048;-77
2022/01/06 09:42:20;;;;;;;19.95;3.22;;;1.90;99.90;;;;;;5061667;28;20037;-77
2022/01/06 09:44:50;;;;;;;18.20;3.42;;;1.90;99.90;;;;;;5047906;28;20045;-77
2022/01/06 09:47:17;;;;;;;19.40;3.10;;;2.00;99.90;;;;;;5048980;28;20053;-77
2022/01/06 09:49:44;;;;;;;18.23;3.40;;;2.00;99.90;;;;;;5048241;28;20136;-77
2022/01/06 09:52:12;;;;;;;18.17;3.03;;;2.00;99.90;;;;;;5057398;28;20094;-77
2022/01/06 09:54:38;;;;;;;18.17;3.08;;;2.10;99.90;;;;;;5049132;28;20080;-77
2022/01/06 09:57:04;;;;;;;24.77;5.03;;;2.20;99.90;;;;;;5047557;28;20409;-77
2022/01/06 09:59:31;;;;;;;22.92;4.28;;;2.20;99.90;;;;;;5046483;28;20405;-77
2022/01/06 10:01:58;;;;;;;22.92;3.38;;;2.30;99.90;;;;;;5060086;28;20564;-77
2022/01/06 10:04:30;;;;;;;22.98;4.00;;;2.30;99.90;;;;;;5043348;28;20559;-77
2022/01/06 10:07:06;;;;;;;17.13;3.15;;;2.40;99.90;;;;;;5047494;28;20526;-77
2022/01/06 10:09:34;;;;;;;21.60;2.80;;;2.40;99.90;;;;;;5047647;28;20060;-75
2022/01/06 10:12:03;;;;;;;14.35;2.35;;;2.50;99.90;;;;;;5047924;28;20051;-75
2022/01/06 10:14:47;;;;;;;20.88;2.53;;;2.60;99.90;;;;;;5046164;28;20049;-76
2022/01/06 10:17:15;;;;;;;18.37;3.20;;;2.70;99.90;;;;;;5048311;28;20041;-76
2022/01/06 10:19:44;;;;;;;17.10;2.58;;;2.80;99.90;;;;;;5047619;28;20388;-76
2022/01/06 10:22:18;;;;;;;16.50;2.25;;;2.90;99.90;;;;;;5059790;28;20086;-76
2022/01/06 10:24:46;;;;;;;19.35;2.20;;;3.00;99.90;;;;;;5053785;28;20052;-76
2022/01/06 10:27:14;;;;;;;12.15;2.50;;;3.10;99.90;;;;;;5049021;28;20045;-76
2022/01/06 10:29:45;;;;;;;21.10;3.78;;;3.30;99.90;;;;;;5047533;28;20806;-76
2022/01/06 10:32:26;;;;;;;20.38;2.53;;;3.40;99.90;;;;;;5051155;28;20563;-76
2022/01/06 10:34:54;;;;;;;16.75;3.13;;;3.50;99.90;;;;;;5051630;28;20040;-76
2022/01/06 10:37:21;;;;;;;20.08;2.90;;;3.60;99.90;;;;;;5065278;28;20052;-76
2022/01/06 10:39:48;;;;;;;19.67;2.97;;;3.60;99.90;;;;;;5064990;28;20078;-76
2022/01/06 10:42:14;;;;;;;15.23;3.03;;;3.60;99.90;;;;;;5051056;28;20164;-76
2022/01/06 10:45:00;;;;;;;14.32;3.83;;;3.70;99.90;;;;;;5063074;28;20051;-76
2022/01/06 10:47:37;;;;;;;21.40;3.45;;;3.70;99.90;;;;;;5043213;28;20198;-77
2022/01/06 10:50:19;;;;;;;18.55;2.55;;;3.80;99.90;;;;;;5053680;28;20032;-76
2022/01/06 10:53:14;;;;;;;27.30;5.00;;;3.80;99.90;;;;;;5070205;28;20436;-76
2022/01/06 10:55:43;;;;;;;29.07;4.50;;;4.00;99.90;;;;;;5040508;28;20430;-77
2022/01/06 10:58:17;;;;;;;20.30;3.95;;;4.20;99.90;;;;;;5069291;28;20495;-77
2022/01/06 11:00:46;;;;;;;22.33;4.25;;;4.50;99.90;;;;;;5043590;28;20417;-77
2022/01/06 11:03:19;;;;;;;21.55;4.13;;;4.70;99.90;;;;;;5066541;28;20428;-77
2022/01/06 11:05:51;;;;;;;26.10;4.80;;;5.10;99.90;;;;;;5068696;28;20971;-77
2022/01/06 11:08:21;;;;;;;27.63;5.63;;;5.50;99.90;;;;;;5070542;28;20449;-75
2022/01/06 11:11:01;;;;;;;26.48;6.78;;;5.90;99.90;;;;;;5059698;28;20424;-76
2022/01/06 11:13:30;;;;;;;25.52;5.05;;;6.10;99.90;;;;;;5053284;28;20532;-76
2022/01/06 11:15:57;;;;;;;21.25;4.35;;;6.40;99.90;;;;;;5050106;28;20413;-76
2022/01/06 11:18:24;;;;;;;21.67;4.55;;;6.70;99.90;;;;;;5049755;28;20492;-77
2022/01/06 11:20:51;;;;;;;19.52;4.32;;;7.20;99.90;;;;;;5055096;28;20423;-77
2022/01/06 11:23:22;;;;;;;18.30;4.47;;;7.50;99.90;;;;;;5041422;28;20790;-77
2022/01/06 11:26:01;;;;;;;20.52;4.03;;;7.90;99.90;;;;;;5066984;28;20403;-77
2022/01/06 11:28:30;;;;;;;18.90;5.80;;;8.30;99.90;;;;;;5069901;28;20483;-77
2022/01/06 11:30:56;;;;;;;21.35;5.10;;;8.50;99.90;;;;;;5068182;28;20444;-77
2022/01/06 11:33:22;;;;;;;19.92;4.80;;;8.40;99.90;;;;;;5068545;28;20944;-77
2022/01/06 11:35:56;;;;;;;19.45;4.65;;;8.40;99.90;;;;;;5066619;28;20408;-77
2022/01/06 11:38:26;;;;;;;19.10;4.70;;;8.50;99.90;;;;;;5069013;28;20408;-77
2022/01/06 11:41:07;;;;;;;19.45;4.50;;;8.50;99.90;;;;;;5062843;28;20425;-77
2022/01/06 11:43:37;;;;;;;18.45;4.45;;;8.30;99.90;;;;;;5049804;28;20924;-77
2022/01/06 11:46:03;;;;;;;19.63;4.53;;;8.10;99.90;;;;;;5052151;28;20485;-77
2022/01/06 11:48:29;;;;;;;19.13;4.55;;;8.00;99.90;;;;;;5033944;28;20492;-77
2022/01/06 11:50:55;;;;;;;22.87;5.03;;;7.70;99.90;;;;;;5047734;28;20489;-77
2022/01/06 11:53:30;;;;;;;19.00;3.83;;;7.40;99.90;;;;;;5046959;28;20413;-77
2022/01/06 11:55:55;;;;;;;;;;;7.20;99.90;;;;;;5053370;28;20131;-77
2022/01/06 11:58:22;;;;;;;;;;;7.00;99.90;;;;;;5071028;28;20450;-77
2022/01/06 12:00:57;;;;;;;19.70;3.70;;;6.80;99.90;;;;;;5068172;28;20007;-77
2022/01/06 12:03:40;;;;;;;21.07;4.23;;;6.70;99.90;;;;;;5059143;28;20426;-76
2022/01/06 12:06:08;;;;;;;19.35;4.68;;;6.60;99.90;;;;;;5048616;28;20847;-75
2022/01/06 12:08:42;;;;;;;22.67;4.53;;;6.60;99.90;;;;;;5049204;28;20463;-75
2022/01/06 12:11:24;;;;;;;21.50;4.07;;;6.60;99.90;;;;;;5045653;28;20432;-76
2022/01/06 12:13:52;;;;;;;25.45;4.57;;;6.60;99.90;;;;;;5047331;28;20479;-76
2022/01/06 12:16:35;;;;;;;20.33;3.95;;;6.50;99.90;;;;;;5047944;28;20986;-76
2022/01/06 12:19:12;;;;;;;21.02;4.18;;;6.50;99.90;;;;;;5047543;28;20426;-76
2022/01/06 12:21:38;;;;;;;18.75;3.58;;;6.70;99.90;;;;;;5030518;28;20424;-76
2022/01/06 12:24:09;;;;;;;20.33;4.30;;;6.90;99.90;;;;;;5049039;28;20425;-77
2022/01/06 12:26:35;;;;;;;20.35;3.90;;;7.10;99.90;;;;;;5047161;28;20417;-77
2022/01/06 12:29:02;;;;;;;19.60;4.20;;;7.30;99.90;;;;;;5048048;28;20808;-76
2022/01/06 12:31:30;;;;;;;19.70;4.18;;;7.40;99.90;;;;;;5045607;28;20529;-77
2022/01/06 12:34:01;;;;;;;19.83;4.28;;;7.50;99.90;;;;;;5035973;28;20411;-77
2022/01/06 12:36:31;;;;;;;20.95;4.00;;;7.40;99.90;;;;;;5031897;28;20496;-76
2022/01/06 12:38:57;;;;;;;19.42;4.45;;;7.30;99.90;;;;;;5048335;28;20406;-77
2022/01/06 12:41:34;;;;;;;17.45;4.22;;;7.30;99.90;;;;;;5047039;28;20410;-76
2022/01/06 12:44:00;;;;;;;18.52;4.32;;;7.40;99.90;;;;;;5048257;28;20429;-77
2022/01/06 12:46:41;;;;;;;21.85;4.10;;;7.30;99.90;;;;;;5046639;28;20409;-77
2022/01/06 12:49:08;;;;;;;18.92;4.40;;;7.10;99.90;;;;;;5047803;28;20938;-77
2022/01/06 12:51:37;;;;;;;18.05;4.63;;;6.90;99.90;;;;;;5047782;28;20413;-76
2022/01/06 12:54:02;;;;;;;22.42;4.10;;;6.80;99.90;;;;;;5046997;28;20425;-76
2022/01/06 12:56:37;;;;;;;20.30;4.43;;;6.80;99.90;;;;;;5048121;28;20990;-76
2022/01/06 12:59:17;;;;;;;20.63;3.87;;;6.90;99.90;;;;;;5047740;28;20927;-77
2022/01/06 13:01:44;;;;;;;23.15;4.25;;;6.90;99.90;;;;;;5048087;28;20428;-77
2022/01/06 13:04:12;;;;;;;20.10;4.28;;;6.90;99.90;;;;;;5046507;28;20807;-76